Time;durP1;ratioP1;P1;durP2;ratioP2;P2;SDS_P1;SDS_P2;PMS_P1;PMS_P2;Temp;Humidity;BMP_temperature;BMP_pressure;BME280_temperature;BME280_humidity;BME280_pressure;Samples;Min_cycle;Max_cycle;Signal;HPM_P1;HPM_P2
2022/05/22 00:01:37;;;;;;;4.47;1.60;;;16.00;60.30;;;;;;5039665;28;20039;-64
2022/05/22 00:04:03;;;;;;;6.32;1.58;;;16.00;60.40;;;;;;5039638;28;20048;-64
2022/05/22 00:06:29;;;;;;;4.30;1.23;;;15.90;60.70;;;;;;5039317;28;20393;-64
2022/05/22 00:08:55;;;;;;;4.63;1.40;;;16.00;60.40;;;;;;5039711;28;20111;-64
2022/05/22 00:11:22;;;;;;;2.65;1.40;;;15.90;60.60;;;;;;5039669;28;20025;-64
2022/05/22 00:13:49;;;;;;;5.38;2.03;;;15.90;60.70;;;;;;5039395;28;20033;-64
2022/05/22 00:19:00;;;;;;;5.22;1.45;;;15.90;60.60;;;;;;5039359;28;20037;-64
2022/05/22 00:21:25;;;;;;;4.50;1.52;;;15.90;60.40;;;;;;5039198;28;20385;-64
2022/05/22 00:23:51;;;;;;;4.28;1.60;;;15.90;60.90;;;;;;5038973;28;20029;-64
2022/05/22 00:26:17;;;;;;;4.88;1.60;;;15.90;60.60;;;;;;5038035;28;20100;-64
2022/05/22 00:28:43;;;;;;;6.15;1.65;;;15.90;60.60;;;;;;5039072;28;20033;-64
2022/05/22 00:31:09;;;;;;;6.10;2.30;;;15.80;61.20;;;;;;5038810;28;20370;-64
2022/05/22 00:33:35;;;;;;;5.93;2.10;;;15.90;60.60;;;;;;5038968;28;20028;-64
2022/05/22 00:36:01;;;;;;;6.10;1.45;;;15.90;60.90;;;;;;5038743;28;20033;-64
2022/05/22 00:38:27;;;;;;;3.60;1.45;;;15.90;61.00;;;;;;5038986;28;20030;-64
2022/05/22 00:40:53;;;;;;;5.30;1.80;;;15.90;61.30;;;;;;5038605;28;20030;-64
2022/05/22 00:43:28;;;;;;;4.97;1.63;;;15.80;61.00;;;;;;5039069;28;20033;-64
2022/05/22 00:45:53;;;;;;;4.45;1.67;;;15.80;60.90;;;;;;5038682;28;20025;-64
2022/05/22 00:48:19;;;;;;;4.82;1.60;;;15.90;61.40;;;;;;5038962;28;20014;-64
2022/05/22 00:50:45;;;;;;;3.78;1.42;;;15.90;61.00;;;;;;5038689;28;20380;-64
2022/05/22 00:53:11;;;;;;;6.43;1.80;;;15.90;61.10;;;;;;5038450;28;20509;-64
2022/05/22 00:55:37;;;;;;;3.00;1.50;;;15.90;61.00;;;;;;5038291;28;20059;-64
2022/05/22 00:58:10;;;;;;;5.45;1.75;;;15.90;61.10;;;;;;5038325;28;20112;-64
2022/05/22 01:00:36;;;;;;;3.60;1.80;;;15.80;61.50;;;;;;5038276;28;20033;-64
2022/05/22 01:05:51;;;;;;;4.70;1.38;;;15.80;61.20;;;;;;5038299;28;20040;-64
2022/05/22 01:08:18;;;;;;;4.80;1.55;;;15.80;61.20;;;;;;5038381;28;20013;-64
2022/05/22 01:10:45;;;;;;;4.15;1.42;;;15.80;61.30;;;;;;5038142;28;20390;-64
2022/05/22 01:13:17;;;;;;;3.80;1.60;;;15.80;61.70;;;;;;5038271;28;20021;-64
2022/05/22 01:15:43;;;;;;;5.72;1.42;;;15.80;61.50;;;;;;5038151;28;20037;-64
2022/05/22 01:18:10;;;;;;;6.55;2.03;;;15.80;61.20;;;;;;5038214;28;20066;-64
2022/05/22 01:20:36;;;;;;;5.07;1.92;;;15.80;61.30;;;;;;5037945;28;20509;-64
2022/05/22 01:23:03;;;;;;;3.65;1.48;;;15.80;61.60;;;;;;5038121;28;20057;-64
2022/05/22 01:25:29;;;;;;;4.10;1.60;;;15.80;61.60;;;;;;5037801;28;20033;-64
2022/05/22 01:27:55;;;;;;;5.63;1.67;;;15.80;61.40;;;;;;5037895;28;20505;-64
2022/05/22 01:30:25;;;;;;;4.40;1.88;;;15.80;62.00;;;;;;5037805;28;20129;-64
2022/05/22 01:32:51;;;;;;;7.63;1.63;;;15.80;61.90;;;;;;5037960;28;20021;-64
2022/05/22 01:35:22;;;;;;;7.07;1.88;;;15.80;62.10;;;;;;5037756;28;20036;-64
2022/05/22 01:37:48;;;;;;;3.75;1.73;;;15.80;61.90;;;;;;5037463;28;20022;-64
2022/05/22 01:40:15;;;;;;;3.58;1.50;;;15.80;62.00;;;;;;5037410;28;20021;-64
2022/05/22 01:42:42;;;;;;;4.82;1.40;;;15.80;62.20;;;;;;5037594;28;20021;-64
2022/05/22 01:45:11;;;;;;;3.53;1.63;;;15.80;62.10;;;;;;5036020;28;20036;-64
2022/05/22 01:47:38;;;;;;;5.75;2.15;;;15.80;62.00;;;;;;5037329;28;20021;-64
2022/05/22 01:50:06;;;;;;;7.15;1.40;;;15.80;61.90;;;;;;5037503;28;20017;-64
2022/05/22 01:52:32;;;;;;;5.13;1.80;;;15.80;61.70;;;;;;5037890;28;20029;-64
2022/05/22 01:54:58;;;;;;;5.50;1.75;;;15.80;62.60;;;;;;5037092;28;20088;-64
2022/05/22 01:57:24;;;;;;;2.45;1.48;;;15.80;62.00;;;;;;5037678;28;20033;-64
2022/05/22 01:59:50;;;;;;;4.82;1.63;;;15.80;62.20;;;;;;5037457;28;20037;-64
2022/05/22 02:02:16;;;;;;;5.78;1.80;;;15.80;61.90;;;;;;5037366;28;20025;-64
2022/05/22 02:04:42;;;;;;;6.22;1.50;;;15.80;62.10;;;;;;5037095;28;20034;-64
2022/05/22 02:09:53;;;;;;;5.57;1.55;;;15.80;62.60;;;;;;5037506;28;20164;-64
2022/05/22 02:12:19;;;;;;;5.35;2.00;;;15.90;62.10;;;;;;5037135;28;20041;-64
2022/05/22 02:14:44;;;;;;;5.55;1.67;;;15.90;62.90;;;;;;5035737;28;20032;-64
2022/05/22 02:17:10;;;;;;;5.47;1.40;;;15.90;62.40;;;;;;5037055;28;20088;-64
2022/05/22 02:19:36;;;;;;;5.43;2.15;;;15.90;62.60;;;;;;5036926;28;20033;-64
2022/05/22 02:22:02;;;;;;;3.65;1.30;;;15.90;62.40;;;;;;5037425;28;20032;-64
2022/05/22 02:24:27;;;;;;;4.13;1.60;;;15.90;62.30;;;;;;5037200;28;20079;-64
2022/05/22 02:26:53;;;;;;;5.93;1.85;;;15.90;62.40;;;;;;5036942;28;20029;-64
2022/05/22 02:29:19;;;;;;;5.07;2.13;;;15.90;62.40;;;;;;5036962;28;20108;-64
2022/05/22 02:31:45;;;;;;;8.25;1.85;;;15.90;62.40;;;;;;5036982;28;20044;-64
2022/05/22 02:34:10;;;;;;;4.05;1.38;;;15.90;62.60;;;;;;5037076;28;20064;-64
2022/05/22 02:36:36;;;;;;;4.70;1.40;;;15.90;62.80;;;;;;5036884;28;20036;-64
2022/05/22 02:39:02;;;;;;;5.70;1.85;;;15.90;62.90;;;;;;5037125;28;20180;-64
2022/05/22 02:41:28;;;;;;;5.32;1.75;;;15.90;62.30;;;;;;5036858;28;20017;-64
2022/05/22 02:43:54;;;;;;;6.30;2.35;;;15.90;62.60;;;;;;5036898;28;20030;-64
2022/05/22 02:46:21;;;;;;;5.80;1.73;;;15.90;63.10;;;;;;5037036;28;20033;-64
2022/05/22 02:48:46;;;;;;;5.57;2.20;;;15.90;62.70;;;;;;5038263;28;20371;-64
2022/05/22 02:51:14;;;;;;;2.30;1.58;;;15.90;62.80;;;;;;5040471;28;20040;-64
2022/05/22 02:53:40;;;;;;;4.88;1.33;;;15.90;62.90;;;;;;5040576;28;20140;-64
2022/05/22 02:56:21;;;;;;;4.10;1.75;;;15.90;62.60;;;;;;5040279;28;20081;-64
2022/05/22 02:58:47;;;;;;;7.28;2.00;;;15.90;62.70;;;;;;5040690;28;20481;-64
2022/05/22 03:01:13;;;;;;;3.67;1.88;;;15.90;63.60;;;;;;5040418;28;20029;-64
2022/05/22 03:03:39;;;;;;;5.72;2.05;;;15.90;62.90;;;;;;5040135;28;20033;-64
2022/05/22 03:08:49;;;;;;;;;;;15.90;62.50;;;;;;5040883;28;20033;-64
2022/05/22 03:11:15;;;;;;;4.60;1.80;;;15.90;63.00;;;;;;5039995;28;19905;-64
2022/05/22 03:13:41;;;;;;;4.50;1.77;;;15.90;63.00;;;;;;5040163;28;20056;-64
2022/05/22 03:16:07;;;;;;;7.07;2.00;;;15.90;63.10;;;;;;5039940;28;20017;-64
2022/05/22 03:18:33;;;;;;;7.10;1.70;;;15.90;63.10;;;;;;5040086;28;20086;-64
2022/05/22 03:20:59;;;;;;;6.38;1.80;;;15.90;63.00;;;;;;5040035;28;20505;-64
2022/05/22 03:23:25;;;;;;;7.13;1.98;;;15.90;62.80;;;;;;5039748;28;20076;-64
2022/05/22 03:25:51;;;;;;;4.75;2.00;;;16.00;63.10;;;;;;5039726;28;20029;-64
2022/05/22 03:28:17;;;;;;;6.47;2.08;;;16.00;63.40;;;;;;5039879;28;20025;-64
2022/05/22 03:30:44;;;;;;;4.35;1.83;;;16.00;62.60;;;;;;5039153;28;20436;-64
2022/05/22 03:33:10;;;;;;;5.50;1.77;;;16.00;62.60;;;;;;5039629;28;20021;-64
2022/05/22 03:35:36;;;;;;;6.30;1.88;;;16.00;62.80;;;;;;5039770;28;20108;-64
2022/05/22 03:38:03;;;;;;;4.15;1.65;;;16.00;63.10;;;;;;5039728;28;20017;-64
2022/05/22 03:40:30;;;;;;;6.85;1.58;;;16.00;62.80;;;;;;5039742;28;20029;-64
2022/05/22 03:42:56;;;;;;;6.00;1.60;;;16.00;62.90;;;;;;5039694;28;20031;-64
2022/05/22 03:45:22;;;;;;;3.15;1.60;;;16.00;63.20;;;;;;5039546;28;20029;-64
2022/05/22 03:47:48;;;;;;;7.68;1.80;;;16.00;63.30;;;;;;5039411;28;20021;-64
2022/05/22 03:50:14;;;;;;;5.45;1.88;;;16.00;63.40;;;;;;5039434;28;20402;-64
2022/05/22 03:52:47;;;;;;;5.63;1.75;;;16.00;63.20;;;;;;5039514;28;20025;-64
2022/05/22 03:55:14;;;;;;;3.55;1.52;;;16.00;63.10;;;;;;5037779;28;20057;-64
2022/05/22 03:57:44;;;;;;;6.72;1.73;;;16.00;63.60;;;;;;5038934;28;20489;-64
2022/05/22 04:00:11;;;;;;;4.40;1.70;;;15.90;62.80;;;;;;5038215;28;20040;-64
2022/05/22 04:02:37;;;;;;;5.93;1.67;;;15.90;63.10;;;;;;5039153;28;20021;-64
2022/05/22 04:05:04;;;;;;;4.13;1.60;;;15.90;63.50;;;;;;5039027;28;20366;-64
2022/05/22 04:07:30;;;;;;;7.72;1.90;;;15.90;63.70;;;;;;5038702;28;20056;-64
2022/05/22 04:09:58;;;;;;;3.88;1.77;;;15.90;63.50;;;;;;5038984;28;20029;-64
2022/05/22 04:12:24;;;;;;;3.67;1.60;;;15.90;63.30;;;;;;5038157;28;20022;-64
2022/05/22 04:14:53;;;;;;;5.55;1.70;;;15.90;63.30;;;;;;5039219;28;20088;-64
2022/05/22 04:17:19;;;;;;;4.30;1.80;;;15.90;63.00;;;;;;5038726;28;20025;-64
2022/05/22 04:19:44;;;;;;;5.75;1.88;;;15.80;63.50;;;;;;5039101;28;20488;-64
2022/05/22 04:22:10;;;;;;;5.93;1.92;;;15.90;63.80;;;;;;5038497;28;20092;-64
2022/05/22 04:27:20;;;;;;;4.15;1.65;;;15.90;63.10;;;;;;5038102;28;20795;-64
2022/05/22 04:29:46;;;;;;;3.60;1.67;;;15.90;63.70;;;;;;5038871;28;20067;-64
2022/05/22 04:32:12;;;;;;;4.72;1.67;;;15.90;63.20;;;;;;5037404;28;20018;-64
2022/05/22 04:34:37;;;;;;;3.63;1.50;;;15.80;63.80;;;;;;5037685;28;20117;-64
2022/05/22 04:37:04;;;;;;;3.10;1.60;;;15.80;63.70;;;;;;5038394;28;20033;-64
2022/05/22 04:39:29;;;;;;;5.05;1.73;;;15.80;63.80;;;;;;5038369;28;20412;-64
2022/05/22 04:41:55;;;;;;;4.72;1.55;;;15.80;63.40;;;;;;5038149;28;20025;-64
2022/05/22 04:44:21;;;;;;;5.03;1.55;;;15.80;63.70;;;;;;5038193;28;20034;-64
2022/05/22 04:46:47;;;;;;;5.80;1.70;;;15.80;63.80;;;;;;5037564;28;20037;-64
2022/05/22 04:49:13;;;;;;;6.00;1.65;;;15.80;64.00;;;;;;5038031;28;20104;-64
2022/05/22 04:51:38;;;;;;;7.63;2.10;;;15.80;64.10;;;;;;5037999;28;20024;-64
2022/05/22 04:54:04;;;;;;;4.50;1.60;;;15.90;63.60;;;;;;5038293;28;20424;-64
2022/05/22 04:56:30;;;;;;;3.53;1.77;;;15.90;63.80;;;;;;5037759;28;20413;-64
2022/05/22 04:58:56;;;;;;;5.65;2.10;;;15.90;64.00;;;;;;5037438;28;20032;-64
2022/05/22 05:01:22;;;;;;;4.20;1.63;;;15.90;63.70;;;;;;5037652;28;20021;-64
2022/05/22 05:03:48;;;;;;;6.03;2.10;;;15.90;63.90;;;;;;5037909;28;20424;-64
2022/05/22 05:06:15;;;;;;;3.83;1.70;;;15.90;63.40;;;;;;5037823;28;20469;-64
2022/05/22 05:08:41;;;;;;;5.72;1.77;;;15.90;64.10;;;;;;5037699;28;20071;-64
2022/05/22 05:11:10;;;;;;;8.18;2.45;;;16.00;63.60;;;;;;5037488;28;20339;-64
2022/05/22 05:13:37;;;;;;;4.60;1.90;;;16.00;63.60;;;;;;5037668;28;20493;-64
2022/05/22 05:16:09;;;;;;;5.30;1.65;;;16.00;63.60;;;;;;5038185;28;20025;-64
2022/05/22 05:18:35;;;;;;;3.97;1.98;;;16.00;63.70;;;;;;5037574;28;20040;-64
2022/05/22 05:21:11;;;;;;;6.60;1.98;;;16.00;64.20;;;;;;5036281;28;20021;-64
2022/05/22 05:23:38;;;;;;;5.93;1.85;;;16.00;63.90;;;;;;5037281;28;20084;-64
2022/05/22 05:26:04;;;;;;;4.88;1.90;;;16.10;64.00;;;;;;5037743;28;20028;-64
2022/05/22 05:28:31;;;;;;;6.05;1.90;;;16.10;63.80;;;;;;5037217;28;20119;-64
2022/05/22 05:30:57;;;;;;;7.88;1.98;;;16.10;63.80;;;;;;5037551;28;20021;-64
2022/05/22 05:33:23;;;;;;;5.75;2.00;;;16.20;64.00;;;;;;5037485;28;20052;-64
2022/05/22 05:35:49;;;;;;;4.03;1.85;;;16.20;63.80;;;;;;5037907;28;20362;-64
2022/05/22 05:38:15;;;;;;;5.50;1.90;;;16.20;63.60;;;;;;5037650;28;20041;-64
2022/05/22 05:40:41;;;;;;;5.45;1.67;;;16.20;63.90;;;;;;5037717;28;20022;-64
2022/05/22 05:43:08;;;;;;;5.25;1.75;;;16.20;64.50;;;;;;5037261;28;20029;-64
2022/05/22 05:45:34;;;;;;;4.40;1.80;;;16.20;64.40;;;;;;5037337;28;20096;-64
2022/05/22 05:48:00;;;;;;;4.13;1.73;;;16.20;64.30;;;;;;5037566;28;20489;-64
2022/05/22 05:50:27;;;;;;;5.93;2.05;;;16.30;64.60;;;;;;5037553;28;20024;-64
2022/05/22 05:52:55;;;;;;;6.82;1.95;;;16.30;64.70;;;;;;5037276;28;20048;-64
2022/05/22 05:55:21;;;;;;;5.13;2.00;;;16.40;64.00;;;;;;5037011;28;20118;-64
2022/05/22 05:57:47;;;;;;;6.85;1.92;;;16.40;64.30;;;;;;5037293;28;20542;-64
2022/05/22 06:00:16;;;;;;;4.75;1.73;;;16.40;64.10;;;;;;5037283;28;20029;-64
2022/05/22 06:02:42;;;;;;;5.80;1.88;;;16.50;64.40;;;;;;5037115;28;20022;-64
2022/05/22 06:05:10;;;;;;;6.85;2.10;;;16.50;64.70;;;;;;5037183;28;20018;-64
2022/05/22 06:07:36;;;;;;;6.90;2.17;;;16.50;64.30;;;;;;5037530;28;20056;-64
2022/05/22 06:10:02;;;;;;;6.55;2.28;;;16.60;64.40;;;;;;5036772;28;20021;-64
2022/05/22 06:12:28;;;;;;;4.53;1.70;;;16.60;64.90;;;;;;5037134;28;20021;-64
2022/05/22 06:14:53;;;;;;;4.80;1.88;;;16.70;64.90;;;;;;5036870;28;20053;-64
2022/05/22 06:17:27;;;;;;;5.40;2.03;;;16.70;65.10;;;;;;5037170;28;20033;-64
2022/05/22 06:19:57;;;;;;;5.95;2.22;;;16.80;64.70;;;;;;5037093;28;20021;-64
2022/05/22 06:22:24;;;;;;;4.90;1.58;;;16.80;64.80;;;;;;5036951;28;20064;-64
2022/05/22 06:24:51;;;;;;;6.22;2.13;;;16.80;64.70;;;;;;5040247;28;20056;-64
2022/05/22 06:27:17;;;;;;;5.55;1.85;;;16.80;64.70;;;;;;5040803;28;20116;-64
2022/05/22 06:29:44;;;;;;;6.70;2.10;;;16.80;64.40;;;;;;5040885;28;20029;-64
2022/05/22 06:32:15;;;;;;;4.55;1.88;;;16.80;64.80;;;;;;5040983;28;20026;-64
2022/05/22 06:34:42;;;;;;;4.85;2.00;;;16.90;65.20;;;;;;5040531;28;20100;-64
2022/05/22 06:37:14;;;;;;;6.18;1.90;;;16.90;65.60;;;;;;5040105;28;20025;-64
2022/05/22 06:39:53;;;;;;;4.13;2.03;;;16.90;66.00;;;;;;5040821;28;20079;-64
2022/05/22 06:42:34;;;;;;;6.72;2.42;;;16.90;65.30;;;;;;5040806;28;20041;-64
2022/05/22 06:45:09;;;;;;;6.97;2.30;;;16.90;65.90;;;;;;5040411;28;20032;-64
2022/05/22 06:47:36;;;;;;;5.45;2.00;;;16.90;65.40;;;;;;5039605;28;20432;-64
2022/05/22 06:50:04;;;;;;;2.90;1.80;;;16.90;65.70;;;;;;5041033;28;20018;-64
2022/05/22 06:52:32;;;;;;;6.13;2.25;;;16.90;65.70;;;;;;5040461;28;20033;-64
2022/05/22 06:55:03;;;;;;;4.47;2.15;;;16.90;65.80;;;;;;5040270;28;20076;-64
2022/05/22 06:57:29;;;;;;;4.32;1.98;;;17.00;65.70;;;;;;5040968;28;20051;-64
2022/05/22 06:59:57;;;;;;;5.45;2.00;;;17.00;65.90;;;;;;5040559;28;20017;-64
2022/05/22 07:02:27;;;;;;;8.35;2.83;;;17.10;66.50;;;;;;5040292;28;20060;-64
2022/05/22 07:04:55;;;;;;;7.30;2.13;;;17.10;66.30;;;;;;5039647;28;20021;-64
2022/05/22 07:07:21;;;;;;;4.38;2.00;;;17.30;66.20;;;;;;5039833;28;20132;-64
2022/05/22 07:09:48;;;;;;;5.53;2.25;;;17.40;66.30;;;;;;5039552;28;20052;-64
2022/05/22 07:12:14;;;;;;;3.95;1.70;;;17.50;66.10;;;;;;5039911;28;20033;-64
2022/05/22 07:14:40;;;;;;;5.45;2.00;;;17.50;66.40;;;;;;5040070;28;20077;-64
2022/05/22 07:17:07;;;;;;;5.85;2.42;;;17.50;66.00;;;;;;5040046;28;20547;-64
2022/05/22 07:19:34;;;;;;;4.80;2.33;;;17.50;66.30;;;;;;5040255;28;20034;-64
2022/05/22 07:22:01;;;;;;;5.35;2.22;;;17.50;65.60;;;;;;5039716;28;20085;-64
2022/05/22 07:24:28;;;;;;;6.22;2.42;;;17.50;66.10;;;;;;5039420;28;20084;-64
2022/05/22 07:26:54;;;;;;;4.18;2.15;;;17.50;66.10;;;;;;5039868;28;20037;-63
2022/05/22 07:29:19;;;;;;;5.00;1.88;;;17.40;66.00;;;;;;5039928;28;20013;-64
2022/05/22 07:31:45;;;;;;;5.47;2.20;;;17.40;66.30;;;;;;5040025;28;20076;-64
2022/05/22 07:34:11;;;;;;;4.82;2.55;;;17.40;67.00;;;;;;5039392;28;20029;-64
2022/05/22 07:36:38;;;;;;;6.97;2.58;;;17.40;66.70;;;;;;5039563;28;20026;-64
2022/05/22 07:39:05;;;;;;;4.88;1.90;;;17.40;67.20;;;;;;5039069;28;20107;-64
2022/05/22 07:41:31;;;;;;;7.32;1.75;;;17.40;66.80;;;;;;5039612;28;20107;-64
2022/05/22 07:43:58;;;;;;;7.43;2.45;;;17.50;67.50;;;;;;5039572;28;20140;-64
2022/05/22 07:46:23;;;;;;;4.35;2.33;;;17.40;68.30;;;;;;5039439;28;20029;-64
2022/05/22 07:48:49;;;;;;;5.95;2.28;;;17.40;67.60;;;;;;5039262;28;20025;-64
2022/05/22 07:51:15;;;;;;;3.25;1.80;;;17.40;68.70;;;;;;5038668;28;20430;-64
2022/05/22 07:53:42;;;;;;;6.38;2.10;;;17.40;69.20;;;;;;5039124;28;20017;-64
2022/05/22 07:56:08;;;;;;;6.40;2.60;;;17.40;69.20;;;;;;5038841;28;20049;-64
2022/05/22 07:58:35;;;;;;;5.32;2.28;;;17.50;67.80;;;;;;5038725;28;20030;-64
2022/05/22 08:01:02;;;;;;;4.30;1.92;;;17.50;68.20;;;;;;5038328;28;20104;-64
2022/05/22 08:03:28;;;;;;;5.88;2.10;;;17.40;68.90;;;;;;5039070;28;20026;-64
2022/05/22 08:05:55;;;;;;;7.47;2.67;;;17.50;68.00;;;;;;5038768;28;20036;-64
2022/05/22 08:08:22;;;;;;;6.38;2.85;;;17.50;69.00;;;;;;5038811;28;20104;-63
2022/05/22 08:10:47;;;;;;;6.05;2.50;;;17.50;68.30;;;;;;5038958;28;20386;-64
2022/05/22 08:13:14;;;;;;;6.13;2.50;;;17.50;69.30;;;;;;5038985;28;20033;-64
2022/05/22 08:15:42;;;;;;;6.85;2.38;;;17.50;68.50;;;;;;5038899;28;20033;-64
2022/05/22 08:18:09;;;;;;;6.65;2.38;;;17.50;68.20;;;;;;5037137;28;20377;-64
2022/05/22 08:20:36;;;;;;;6.35;2.42;;;17.50;69.00;;;;;;5036798;28;20032;-64
2022/05/22 08:23:08;;;;;;;5.78;2.50;;;17.60;70.40;;;;;;5036865;28;20458;-64
2022/05/22 08:25:34;;;;;;;3.58;1.83;;;17.60;69.40;;;;;;5036828;28;20036;-64
2022/05/22 08:28:00;;;;;;;6.25;2.50;;;17.60;71.00;;;;;;5037791;28;20029;-64
2022/05/22 08:30:28;;;;;;;6.05;2.40;;;17.70;70.50;;;;;;5037838;28;20017;-64
2022/05/22 08:32:54;;;;;;;6.13;2.45;;;17.70;69.00;;;;;;5038367;28;20104;-64
2022/05/22 08:35:31;;;;;;;6.45;2.50;;;17.70;69.30;;;;;;5037982;28;20025;-64
2022/05/22 08:37:58;;;;;;;6.05;2.53;;;17.70;69.30;;;;;;5038548;28;20033;-64
2022/05/22 08:40:26;;;;;;;6.15;2.53;;;17.80;69.40;;;;;;5038607;28;20025;-64
2022/05/22 08:43:05;;;;;;;8.07;2.42;;;17.80;69.80;;;;;;5038173;28;20035;-64
2022/05/22 08:45:42;;;;;;;5.35;2.13;;;17.90;69.80;;;;;;5038074;28;20019;-64
2022/05/22 08:48:07;;;;;;;6.60;2.63;;;17.90;71.70;;;;;;5038201;28;20060;-64
2022/05/22 08:50:35;;;;;;;5.53;2.55;;;18.00;70.30;;;;;;5038352;28;20457;-64
2022/05/22 08:53:08;;;;;;;7.28;3.03;;;18.10;71.60;;;;;;5037833;28;20018;-64
2022/05/22 09:01:19;;;;;;;4.07;2.22;;;18.50;69.50;;;;;;5052442;28;20087;-64
2022/05/22 09:04:01;;;;;;;6.22;2.92;;;18.60;69.80;;;;;;5055625;28;20033;-64
2022/05/22 09:06:38;;;;;;;7.25;2.60;;;18.70;71.00;;;;;;5056525;28;20062;-64
2022/05/22 09:09:04;;;;;;;5.38;2.45;;;18.90;70.80;;;;;;5056734;28;20017;-64
2022/05/22 09:12:11;;;;;;;7.00;3.17;;;19.10;70.80;;;;;;5056953;28;20025;-64
2022/05/22 09:14:44;;;;;;;7.22;2.65;;;19.20;68.90;;;;;;5056910;28;20442;-64
2022/05/22 09:17:26;;;;;;;7.20;2.83;;;19.30;69.00;;;;;;5057156;28;20043;-64
2022/05/22 09:19:59;;;;;;;6.57;2.40;;;19.40;68.90;;;;;;5056297;28;20028;-64
2022/05/22 09:22:39;;;;;;;5.70;2.80;;;19.40;68.20;;;;;;5057633;28;20048;-64
2022/05/22 09:25:28;;;;;;;7.68;3.20;;;19.30;67.90;;;;;;5057567;28;20032;-64
2022/05/22 09:28:21;;;;;;;6.10;2.40;;;19.20;68.30;;;;;;5057988;28;20021;-64
2022/05/22 09:31:16;;;;;;;5.70;2.40;;;19.20;68.20;;;;;;5057938;28;20450;-64
2022/05/22 09:33:56;;;;;;;5.80;2.75;;;19.10;69.40;;;;;;5057065;28;20029;-64
2022/05/22 09:36:36;;;;;;;7.05;2.67;;;19.20;68.60;;;;;;5057404;28;20429;-64
2022/05/22 09:39:13;;;;;;;6.50;3.00;;;19.30;68.80;;;;;;5057208;28;20027;-64
2022/05/22 09:41:59;;;;;;;6.43;2.75;;;19.40;69.40;;;;;;5056716;28;20379;-64
2022/05/22 09:44:44;;;;;;;8.40;3.20;;;19.50;69.60;;;;;;5057284;28;20040;-64
2022/05/22 09:47:26;;;;;;;6.28;3.00;;;19.80;69.00;;;;;;5057369;28;20017;-64
2022/05/22 09:50:08;;;;;;;6.32;2.72;;;19.90;68.90;;;;;;5049063;28;20029;-64
2022/05/22 09:52:37;;;;;;;7.70;2.90;;;20.10;68.40;;;;;;5037374;28;20044;-64
2022/05/22 09:55:44;;;;;;;9.27;3.03;;;20.20;68.80;;;;;;5036955;28;20046;-64
2022/05/22 09:58:22;;;;;;;6.30;3.10;;;20.40;69.00;;;;;;5039031;28;20045;-64
2022/05/22 10:00:55;;;;;;;4.95;2.53;;;20.70;69.40;;;;;;5041375;28;20560;-64
2022/05/22 10:03:26;;;;;;;5.50;2.47;;;21.10;68.20;;;;;;5041166;28;20481;-65
2022/05/22 10:05:52;;;;;;;5.95;2.50;;;21.30;67.00;;;;;;5041450;28;20056;-65
2022/05/22 10:08:42;;;;;;;4.88;2.63;;;21.50;66.50;;;;;;5041343;28;20021;-64
2022/05/22 10:11:52;;;;;;;5.85;2.38;;;21.70;66.50;;;;;;5041118;28;20025;-64
2022/05/22 10:14:54;;;;;;;6.40;2.65;;;21.90;66.00;;;;;;5040357;28;20107;-64
2022/05/22 10:17:32;;;;;;;5.90;2.45;;;22.30;66.50;;;;;;5040479;28;20136;-64
2022/05/22 10:20:22;;;;;;;5.93;2.60;;;22.70;66.10;;;;;;5039757;28;20032;-64
2022/05/22 10:23:02;;;;;;;6.53;2.50;;;23.10;65.60;;;;;;5041047;28;20386;-65
2022/05/22 10:25:50;;;;;;;5.82;2.58;;;23.40;64.60;;;;;;5040796;28;20032;-64
2022/05/22 10:28:21;;;;;;;6.50;2.38;;;23.60;63.40;;;;;;5041075;28;20064;-64
2022/05/22 10:30:56;;;;;;;6.93;2.75;;;23.90;64.40;;;;;;5040729;28;20452;-64
2022/05/22 10:33:26;;;;;;;5.70;2.53;;;24.10;64.30;;;;;;5041370;28;20049;-65
2022/05/22 10:36:02;;;;;;;5.50;2.63;;;24.00;61.90;;;;;;5040976;28;20104;-65
2022/05/22 10:38:37;;;;;;;7.00;2.90;;;23.90;62.70;;;;;;5040902;28;20036;-65
2022/05/22 10:44:08;;;;;;;9.10;3.05;;;23.80;61.90;;;;;;5047957;28;20428;-65
2022/05/22 10:46:49;;;;;;;7.90;2.88;;;23.80;62.90;;;;;;5057387;28;20033;-64
2022/05/22 10:49:15;;;;;;;6.75;2.72;;;23.70;61.90;;;;;;5042766;28;20178;-65
2022/05/22 10:51:41;;;;;;;5.88;2.70;;;23.60;62.60;;;;;;5042856;28;20507;-64
2022/05/22 10:54:07;;;;;;;4.78;2.65;;;23.60;62.10;;;;;;5042883;28;20029;-65
2022/05/22 10:56:35;;;;;;;5.78;2.60;;;23.40;62.50;;;;;;5040097;28;20046;-63
2022/05/22 10:59:19;;;;;;;4.78;2.60;;;23.40;62.70;;;;;;5038872;28;20030;-65
2022/05/22 11:01:56;;;;;;;5.53;2.75;;;23.30;63.40;;;;;;5041950;28;20045;-64
2022/05/22 11:04:32;;;;;;;5.97;2.33;;;23.30;62.70;;;;;;5038424;28;20500;-64
2022/05/22 11:07:01;;;;;;;5.30;2.72;;;23.30;63.30;;;;;;5039815;28;20543;-64
2022/05/22 11:09:32;;;;;;;6.05;2.72;;;23.40;62.60;;;;;;5039498;28;20053;-64
2022/05/22 11:12:10;;;;;;;6.82;3.10;;;23.40;63.20;;;;;;5040059;28;20025;-64
2022/05/22 11:14:37;;;;;;;4.90;2.45;;;23.50;63.80;;;;;;5040259;28;20028;-64
2022/05/22 11:17:10;;;;;;;6.47;2.80;;;23.70;63.60;;;;;;5038796;28;20051;-64
2022/05/22 11:19:39;;;;;;;4.80;2.67;;;23.90;63.80;;;;;;5038902;28;20064;-64
2022/05/22 11:22:11;;;;;;;5.43;2.40;;;24.20;63.30;;;;;;5038749;28;20030;-64
2022/05/22 11:25:02;;;;;;;5.80;2.53;;;24.30;62.50;;;;;;5039223;28;20075;-64
2022/05/22 11:27:36;;;;;;;5.00;2.53;;;24.40;63.60;;;;;;5039196;28;20075;-65
2022/05/22 11:30:18;;;;;;;4.43;2.15;;;24.40;62.80;;;;;;5039227;28;20030;-65
2022/05/22 11:33:21;;;;;;;4.82;2.50;;;24.50;62.40;;;;;;5039587;28;20029;-64
2022/05/22 11:36:13;;;;;;;8.43;3.00;;;24.60;62.60;;;;;;5039538;28;20022;-65
2022/05/22 11:38:59;;;;;;;4.20;2.30;;;25.00;63.30;;;;;;5038941;28;20557;-65
2022/05/22 11:41:42;;;;;;;5.75;2.35;;;25.60;61.40;;;;;;5039393;28;20024;-65
2022/05/22 11:44:40;;;;;;;5.43;2.17;;;26.10;59.70;;;;;;5039889;28;20081;-65
2022/05/22 11:47:17;;;;;;;4.18;2.00;;;26.40;55.10;;;;;;5039453;28;20071;-65
2022/05/22 11:49:45;;;;;;;5.32;2.45;;;26.50;57.30;;;;;;5039542;28;20119;-65
2022/05/22 11:55:13;;;;;;;4.72;2.20;;;26.70;58.80;;;;;;5039247;28;20100;-66
2022/05/22 11:57:49;;;;;;;4.57;1.92;;;26.80;55.00;;;;;;5039346;28;20051;-66
2022/05/22 12:00:28;;;;;;;2.53;2.00;;;26.90;58.20;;;;;;5039135;28;20436;-67
2022/05/22 12:03:00;;;;;;;3.55;2.00;;;27.40;55.10;;;;;;5039040;28;20413;-67
2022/05/22 12:06:06;;;;;;;4.70;2.42;;;27.80;55.00;;;;;;5038657;28;20053;-67
2022/05/22 12:08:55;;;;;;;4.10;1.90;;;28.40;55.10;;;;;;5039144;28;20075;-67
2022/05/22 12:11:33;;;;;;;4.07;2.00;;;28.80;57.70;;;;;;5039056;28;20032;-68
2022/05/22 12:14:20;;;;;;;6.90;2.72;;;28.90;54.80;;;;;;5039121;28;20022;-67
2022/05/22 12:17:17;;;;;;;4.80;2.08;;;29.30;56.50;;;;;;5039163;28;20017;-67
2022/05/22 12:19:55;;;;;;;5.90;2.00;;;29.70;52.70;;;;;;5038987;28;20477;-67
2022/05/22 12:23:07;;;;;;;4.72;2.05;;;30.00;53.10;;;;;;5038043;28;20044;-67
2022/05/22 12:25:22;;;;;;;5.57;2.28;;;29.80;47.80;;;;;;5038428;28;20485;-65
2022/05/22 12:27:48;;;;;;;3.92;2.08;;;29.20;49.90;;;;;;5039049;28;20014;-65
2022/05/22 12:30:31;;;;;;;3.95;1.95;;;28.70;47.60;;;;;;5038702;28;20033;-65
2022/05/22 12:33:00;;;;;;;4.70;2.17;;;28.30;50.30;;;;;;5038485;28;20022;-65
2022/05/22 12:35:26;;;;;;;4.03;2.30;;;28.00;48.80;;;;;;5038065;28;20044;-65
2022/05/22 12:38:01;;;;;;;3.40;2.00;;;27.70;51.00;;;;;;5038323;28;20104;-65
2022/05/22 12:40:46;;;;;;;4.85;2.30;;;27.80;52.20;;;;;;5038162;28;20426;-65
2022/05/22 12:43:16;;;;;;;3.92;2.28;;;27.90;48.50;;;;;;5038501;28;20048;-65
2022/05/22 12:45:43;;;;;;;7.03;2.15;;;27.90;50.10;;;;;;5038600;28;20017;-65
2022/05/22 12:48:13;;;;;;;4.47;2.28;;;28.10;50.20;;;;;;5038198;28;20029;-65
2022/05/22 12:50:47;;;;;;;4.63;2.35;;;28.00;50.20;;;;;;5038121;28;20033;-65
2022/05/22 12:53:26;;;;;;;;;;;27.90;49.70;;;;;;5038499;28;20022;-65
2022/05/22 12:55:53;;;;;;;4.90;2.00;;;27.80;51.00;;;;;;5038006;28;19917;-65
2022/05/22 12:58:38;;;;;;;5.53;2.70;;;27.70;48.50;;;;;;5037699;28;20030;-65
2022/05/22 13:01:22;;;;;;;6.50;2.35;;;27.60;49.90;;;;;;5037939;28;20170;-65
2022/05/22 13:03:52;;;;;;;6.10;2.40;;;27.60;49.90;;;;;;5037927;28;20043;-65
2022/05/22 13:06:21;;;;;;;7.22;2.70;;;27.60;50.40;;;;;;5038102;28;20030;-65
2022/05/22 13:09:07;;;;;;;5.70;2.20;;;27.70;51.30;;;;;;5037431;28;20386;-65
2022/05/22 13:11:44;;;;;;;5.15;2.13;;;27.80;50.20;;;;;;5036384;28;20447;-65
2022/05/22 13:14:29;;;;;;;3.47;2.03;;;27.90;51.70;;;;;;5036950;28;20017;-65
2022/05/22 13:16:56;;;;;;;5.18;2.40;;;27.90;49.50;;;;;;5037811;28;20025;-65
2022/05/22 13:19:28;;;;;;;4.00;2.28;;;27.90;49.80;;;;;;5037579;28;20077;-65
2022/05/22 13:21:56;;;;;;;6.30;2.20;;;27.70;49.20;;;;;;5037863;28;20083;-65
2022/05/22 13:24:31;;;;;;;6.43;2.40;;;27.60;48.80;;;;;;5035691;28;20060;-65
2022/05/22 13:27:02;;;;;;;6.25;2.67;;;27.40;49.10;;;;;;5035625;28;20709;-65
2022/05/22 13:29:49;;;;;;;3.72;2.13;;;27.20;49.80;;;;;;5036199;28;20030;-65
2022/05/22 13:32:24;;;;;;;4.00;2.00;;;27.40;51.60;;;;;;5035759;28;20079;-65